Time;durP1;ratioP1;P1;durP2;ratioP2;P2;SDS_P1;SDS_P2;PMS_P1;PMS_P2;Temp;Humidity;BMP_temperature;BMP_pressure;BME280_temperature;BME280_humidity;BME280_pressure;Samples;Min_cycle;Max_cycle;Signal;HPM_P1;HPM_P2
2021/08/16 05:00:41;;;;;;;6.03;3.00;;;;;;;28.35;39.03;94844.16;6082798;23;19944;-73
2021/08/16 05:03:07;;;;;;;7.10;3.22;;;;;;;29.45;37.34;94851.75;4948803;29;20062;-75
2021/08/16 05:05:33;;;;;;;6.18;2.95;;;;;;;29.02;37.63;94848.38;4932845;29;20505;-75
2021/08/16 05:07:59;;;;;;;4.30;3.00;;;;;;;29.83;36.88;94854.38;4916722;29;20023;-75
2021/08/16 05:10:26;;;;;;;6.35;3.22;;;;;;;30.81;35.23;94854.66;4917297;29;20126;-75
2021/08/16 05:12:52;;;;;;;10.43;2.95;;;;;;;30.40;36.18;94864.59;4915737;29;20023;-75
2021/08/16 05:15:18;;;;;;;8.23;3.08;;;;;;;31.03;34.65;94863.84;4915978;29;20110;-75
2021/08/16 05:17:43;;;;;;;5.68;3.00;;;;;;;30.76;34.49;94865.44;4930498;29;20025;-76
2021/08/16 05:20:09;;;;;;;3.78;3.10;;;;;;;30.42;35.25;94859.72;4914953;29;20036;-76
2021/08/16 05:22:37;;;;;;;3.95;2.70;;;;;;;30.54;34.78;94864.56;4913302;29;20094;-76
2021/08/16 05:25:03;;;;;;;3.15;2.72;;;;;;;31.13;35.03;94863.63;4913886;29;20032;-75
2021/08/16 05:27:28;;;;;;;3.42;2.50;;;;;;;32.23;32.97;94862.06;4931471;29;20103;-74
2021/08/16 05:29:54;;;;;;;6.20;2.65;;;;;;;31.83;33.66;94861.97;4912781;29;20474;-75
2021/08/16 05:32:19;;;;;;;3.50;2.58;;;;;;;32.09;32.72;94867.53;4917244;29;20417;-74
2021/08/16 05:34:45;;;;;;;3.00;2.80;;;;;;;33.51;31.06;94860.81;4915623;29;20028;-75
2021/08/16 05:37:10;;;;;;;5.93;2.15;;;;;;;33.69;30.07;94854.31;4931043;29;20043;-75
2021/08/16 05:39:36;;;;;;;8.52;2.42;;;;;;;34.14;29.25;94857.41;4931540;29;20062;-75
2021/08/16 05:42:02;;;;;;;4.75;2.40;;;;;;;34.20;28.97;94864.19;4915525;29;20023;-75
2021/08/16 05:44:28;;;;;;;2.42;2.22;;;;;;;34.73;28.76;94858.31;4927589;29;20027;-76
2021/08/16 05:46:53;;;;;;;2.63;2.42;;;;;;;34.39;28.97;94865.41;4920301;29;20507;-75
2021/08/16 05:49:19;;;;;;;2.80;2.50;;;;;;;33.48;29.67;94856.06;4936772;29;20027;-76
2021/08/16 05:51:45;;;;;;;4.22;2.75;;;;;;;34.76;28.36;94869.22;4935808;29;20094;-75
2021/08/16 05:54:10;;;;;;;8.23;2.53;;;;;;;35.66;27.45;94861.50;4936536;29;20034;-75
2021/08/16 05:56:36;;;;;;;3.00;2.70;;;;;;;35.12;27.72;94857.97;4934877;29;20508;-75
2021/08/16 05:59:01;;;;;;;3.20;2.70;;;;;;;34.64;28.58;94857.59;4936821;29;20361;-75
2021/08/16 06:01:27;;;;;;;5.40;2.60;;;;;;;35.97;27.13;94853.75;4952225;29;20074;-75
2021/08/16 06:03:52;;;;;;;3.33;2.70;;;;;;;34.58;28.90;94848.84;4936263;29;20098;-76
2021/08/16 06:06:18;;;;;;;3.15;2.47;;;;;;;30.65;34.48;94857.94;4920332;29;20039;-76
2021/08/16 06:08:43;;;;;;;4.63;2.75;;;;;;;30.49;35.64;94853.97;4952466;29;20086;-77
2021/08/16 06:11:09;;;;;;;3.03;2.50;;;;;;;29.64;35.89;94851.72;4927793;29;20039;-77
2021/08/16 06:13:34;;;;;;;3.00;2.60;;;;;;;30.99;34.25;94857.50;4928797;29;20031;-76
2021/08/16 06:15:59;;;;;;;3.95;2.60;;;;;;;31.15;34.24;94853.41;4922489;29;20043;-76
2021/08/16 06:18:25;;;;;;;2.95;2.75;;;;;;;30.18;34.30;94849.19;4914046;29;20031;-77
2021/08/16 06:20:51;;;;;;;6.32;3.13;;;;;;;35.48;27.99;94857.38;4945161;29;20464;-76
2021/08/16 06:23:16;;;;;;;3.78;2.75;;;;;;;37.11;26.42;94858.28;4934351;29;20023;-77
2021/08/16 06:25:41;;;;;;;3.67;2.67;;;;;;;38.11;24.37;94851.06;4922979;29;20032;-77
2021/08/16 06:28:07;;;;;;;4.03;2.90;;;;;;;39.08;24.04;94861.22;4897624;29;20034;-76
2021/08/16 06:30:33;;;;;;;5.28;3.03;;;;;;;37.44;24.62;94855.38;4941113;28;20091;-75
2021/08/16 06:32:58;;;;;;;3.72;2.58;;;;;;;36.65;25.73;94869.53;4928225;29;20094;-78
2021/08/16 06:35:23;;;;;;;3.80;2.67;;;;;;;37.17;25.79;94859.63;4926880;29;20047;-75
2021/08/16 06:37:49;;;;;;;2.47;2.17;;;;;;;37.48;24.87;94862.47;4925014;29;20106;-75
2021/08/16 06:40:15;;;;;;;3.53;2.60;;;;;;;36.48;26.52;94859.69;4942313;29;20459;-75
2021/08/16 06:42:40;;;;;;;2.75;2.28;;;;;;;37.64;25.50;94864.44;4910935;29;20387;-75
2021/08/16 06:45:06;;;;;;;4.28;2.50;;;;;;;34.81;27.57;94865.56;4907758;29;20387;-76
2021/08/16 06:47:32;;;;;;;4.72;2.55;;;;;;;29.36;35.22;94863.38;4895496;29;20027;-76
2021/08/16 06:49:58;;;;;;;2.90;2.70;;;;;;;30.13;34.03;94854.63;4906173;29;20035;-77
2021/08/16 06:52:23;;;;;;;2.60;2.40;;;;;;;31.27;32.38;94851.00;4924748;29;20027;-76
2021/08/16 06:54:49;;;;;;;5.10;2.65;;;;;;;30.66;32.10;94854.97;4943785;29;20024;-75
2021/08/16 06:57:14;;;;;;;2.83;2.53;;;;;;;31.69;31.58;94850.53;4924265;29;20066;-75
2021/08/16 06:59:40;;;;;;;2.75;2.55;;;;;;;30.26;32.72;94855.72;4924578;29;20634;-79
2021/08/16 07:02:05;;;;;;;3.55;2.40;;;;;;;29.77;33.46;94846.41;4937305;28;20043;-75
2021/08/16 07:04:31;;;;;;;2.47;2.30;;;;;;;31.85;31.06;94842.94;4946673;28;20042;-76
2021/08/16 07:06:56;;;;;;;3.20;2.97;;;;;;;36.77;25.87;94846.00;4939890;28;20393;-75
2021/08/16 07:09:23;;;;;;;3.00;2.67;;;;;;;30.24;33.80;94847.22;4937220;28;20038;-76
2021/08/16 07:11:48;;;;;;;3.75;2.38;;;;;;;30.58;33.12;94841.50;4936826;29;20036;-75
2021/08/16 07:14:14;;;;;;;2.65;2.45;;;;;;;28.55;36.07;94843.09;4933345;29;20035;-76
2021/08/16 07:16:39;;;;;;;2.88;2.67;;;;;;;29.27;34.96;94844.56;4917802;28;20057;-77
2021/08/16 07:19:05;;;;;;;3.85;2.47;;;;;;;30.44;34.55;94846.06;4956022;28;20023;-80
2021/08/16 07:21:30;;;;;;;3.22;2.55;;;;;;;30.61;34.04;94848.91;4927439;28;20047;-75
2021/08/16 07:23:56;;;;;;;3.03;2.70;;;;;;;31.11;33.30;94850.56;4930316;29;20039;-75
2021/08/16 07:26:22;;;;;;;4.25;2.50;;;;;;;30.85;33.22;94849.50;4931472;29;20046;-77
2021/08/16 07:28:48;;;;;;;3.55;2.70;;;;;;;29.90;34.22;94844.09;4915808;29;20071;-79
2021/08/16 07:31:13;;;;;;;3.17;2.20;;;;;;;30.17;34.16;94852.16;4907979;29;20031;-76
2021/08/16 07:33:39;;;;;;;3.30;2.72;;;;;;;30.27;34.23;94846.63;4917810;29;20071;-78
2021/08/16 07:36:05;;;;;;;2.33;2.13;;;;;;;30.86;34.45;94847.63;4916718;29;20035;-77
2021/08/16 07:38:31;;;;;;;2.70;2.50;;;;;;;31.16;32.96;94841.59;4951645;29;20027;-75
2021/08/16 07:40:56;;;;;;;3.47;2.40;;;;;;;31.34;32.65;94849.47;4915285;29;20580;-74
2021/08/16 07:43:22;;;;;;;2.97;2.45;;;;;;;30.91;33.55;94850.16;4934154;29;20024;-75
2021/08/16 07:45:49;;;;;;;4.20;2.63;;;;;;;31.51;33.17;94854.19;4950673;29;20035;-74
2021/08/16 07:48:14;;;;;;;3.50;2.58;;;;;;;30.84;34.66;94842.53;4927046;29;20056;-75
2021/08/16 07:50:40;;;;;;;3.10;2.75;;;;;;;32.02;32.56;94856.41;4908968;28;20058;-75
2021/08/16 07:53:06;;;;;;;3.25;2.60;;;;;;;30.70;33.74;94845.25;4969186;28;20030;-75
2021/08/16 07:55:32;;;;;;;2.67;2.47;;;;;;;30.57;33.39;94838.00;4914222;29;20036;-74
2021/08/16 07:57:57;;;;;;;3.33;2.90;;;;;;;31.04;33.22;94844.03;4929166;29;20598;-76
2021/08/16 08:00:23;;;;;;;4.28;2.90;;;;;;;30.74;34.42;94842.75;4929794;29;20100;-75
2021/08/16 08:02:49;;;;;;;3.78;3.05;;;;;;;31.14;33.61;94846.47;4900896;28;20496;-76
2021/08/16 08:05:22;;;;;;;3.40;3.17;;;;;;;30.52;34.55;94838.13;4932308;29;20062;-71
2021/08/16 08:07:48;;;;;;;3.60;2.65;;;;;;;31.17;35.37;94833.28;4913950;29;20618;-77
2021/08/16 08:10:14;;;;;;;5.25;2.75;;;;;;;31.66;33.62;94843.09;4900576;28;20035;-74
2021/08/16 08:12:39;;;;;;;3.60;3.00;;;;;;;31.50;33.58;94841.13;4917401;29;20220;-74
2021/08/16 08:15:06;;;;;;;4.07;2.72;;;;;;;31.57;32.99;94836.09;4907074;29;20118;-74
2021/08/16 08:17:31;;;;;;;3.83;2.78;;;;;;;30.48;33.33;94831.00;4933478;29;20027;-79
2021/08/16 08:19:57;;;;;;;4.68;2.72;;;;;;;31.77;33.27;94835.63;4900858;29;20127;-74
2021/08/16 08:22:23;;;;;;;6.40;3.28;;;;;;;31.58;33.76;94838.50;4932939;29;20489;-74
2021/08/16 08:24:49;;;;;;;8.05;3.20;;;;;;;31.67;33.93;94833.97;4932520;29;20504;-75
2021/08/16 08:27:14;;;;;;;4.78;3.10;;;;;;;32.38;32.83;94824.91;4925849;29;20035;-74
2021/08/16 08:29:40;;;;;;;3.17;2.85;;;;;;;32.43;33.10;94826.63;4898190;29;20446;-75
2021/08/16 08:32:06;;;;;;;3.95;3.10;;;;;;;32.32;32.85;94820.78;4932446;29;20032;-74
2021/08/16 08:34:32;;;;;;;3.30;3.05;;;;;;;31.58;32.85;94817.06;4932866;29;20031;-74
2021/08/16 08:36:57;;;;;;;5.53;3.45;;;;;;;32.20;33.19;94811.75;4931639;29;20035;-75
2021/08/16 08:39:23;;;;;;;3.38;3.08;;;;;;;32.27;31.89;94817.44;4916504;29;20066;-75
2021/08/16 08:41:49;;;;;;;4.50;3.35;;;;;;;31.84;34.14;94815.34;4913752;29;20038;-73
2021/08/16 08:44:14;;;;;;;3.20;2.90;;;;;;;32.79;33.07;94807.66;4950857;28;20019;-75
2021/08/16 08:46:40;;;;;;;3.60;3.10;;;;;;;32.12;32.06;94805.22;4951066;28;20039;-75
2021/08/16 08:49:08;;;;;;;3.97;3.38;;;;;;;32.21;31.98;94800.69;4914661;29;20465;-75
2021/08/16 08:51:41;;;;;;;5.00;3.08;;;;;;;32.23;32.25;94795.81;4914590;29;20031;-75
2021/08/16 08:54:06;;;;;;;7.82;3.20;;;;;;;32.70;32.51;94794.22;4913035;29;20507;-74
2021/08/16 08:56:32;;;;;;;3.55;3.00;;;;;;;31.78;31.82;94792.44;4916997;29;20035;-75
2021/08/16 08:58:58;;;;;;;4.75;3.00;;;;;;;32.01;32.34;94792.38;4931957;29;20024;-74
2021/08/16 09:01:23;;;;;;;4.68;2.88;;;;;;;32.59;31.11;94773.38;4908265;29;20040;-75
2021/08/16 09:03:49;;;;;;;3.28;2.90;;;;;;;32.77;30.75;94775.75;4915396;29;20084;-75
2021/08/16 09:06:26;;;;;;;3.42;3.13;;;;;;;32.49;30.98;94761.03;4892918;29;20067;-75
2021/08/16 09:08:51;;;;;;;3.30;3.00;;;;;;;32.69;31.62;94779.22;4901304;29;20028;-75
2021/08/16 09:11:17;;;;;;;4.65;3.25;;;;;;;32.45;31.85;94767.31;4928090;29;20031;-77
2021/08/16 09:13:55;;;;;;;3.83;2.80;;;;;;;33.05;31.52;94768.19;4910687;29;20040;-74
2021/08/16 09:16:20;;;;;;;3.33;3.00;;;;;;;33.32;29.96;94769.78;4907001;29;20036;-75
2021/08/16 09:18:46;;;;;;;4.95;2.60;;;;;;;32.70;31.04;94767.38;4912084;29;20331;-76
2021/08/16 09:21:12;;;;;;;3.60;3.08;;;;;;;32.43;31.56;94767.59;4911179;29;20540;-75
2021/08/16 09:23:44;;;;;;;3.65;3.30;;;;;;;32.42;31.49;94766.03;4920496;29;20023;-75
2021/08/16 09:26:10;;;;;;;4.20;3.47;;;;;;;31.44;31.33;94757.38;4913675;29;20119;-75
2021/08/16 09:28:36;;;;;;;5.82;2.97;;;;;;;32.77;32.47;94762.34;4896333;29;20038;-78
2021/08/16 09:31:14;;;;;;;5.00;3.03;;;;;;;32.60;30.78;94754.25;4912979;29;20032;-76
2021/08/16 09:33:53;;;;;;;3.22;2.88;;;;;;;32.63;30.09;94750.94;4930389;29;20031;-74
2021/08/16 09:36:19;;;;;;;3.65;2.83;;;;;;;32.82;29.80;94748.75;4896682;29;20134;-74
2021/08/16 09:38:44;;;;;;;4.15;2.92;;;;;;;32.27;31.34;94748.47;4913043;29;20020;-75
2021/08/16 09:41:20;;;;;;;4.78;2.80;;;;;;;33.16;30.78;94744.53;4927530;29;20038;-73
2021/08/16 09:43:45;;;;;;;4.95;3.08;;;;;;;32.88;30.92;94746.69;4937908;29;20148;-75
2021/08/16 09:46:15;;;;;;;3.08;2.70;;;;;;;33.18;28.74;94744.97;4930396;29;20035;-75
2021/08/16 09:48:40;;;;;;;3.38;3.03;;;;;;;32.84;29.47;94733.13;4918721;29;20114;-75
2021/08/16 09:51:06;;;;;;;3.15;2.90;;;;;;;32.99;30.04;94736.44;4924585;29;20031;-73
2021/08/16 09:53:31;;;;;;;3.03;2.80;;;;;;;32.85;28.66;94729.34;4901387;29;20114;-76
2021/08/16 09:56:00;;;;;;;3.50;3.20;;;;;;;33.56;29.96;94721.66;4920485;29;20103;-75
2021/08/16 09:58:26;;;;;;;3.95;2.47;;;;;;;33.59;29.47;94737.16;4931288;29;20035;-73
2021/08/16 10:00:54;;;;;;;4.05;3.05;;;;;;;32.87;30.23;94729.81;4916645;28;20024;-77
2021/08/16 10:03:19;;;;;;;4.13;2.90;;;;;;;31.91;30.52;94723.75;4924920;28;20058;-74
2021/08/16 10:05:52;;;;;;;3.03;2.80;;;;;;;32.90;28.78;94723.03;4926983;28;20028;-74
2021/08/16 10:08:24;;;;;;;2.88;2.67;;;;;;;32.81;28.01;94714.97;4929885;28;20037;-74
2021/08/16 10:10:52;;;;;;;3.28;2.60;;;;;;;33.73;28.79;94704.72;4920982;29;20031;-74
2021/08/16 10:13:20;;;;;;;2.60;2.40;;;;;;;33.21;28.20;94709.44;4897123;29;20040;-76
2021/08/16 10:15:46;;;;;;;3.05;2.72;;;;;;;32.99;26.90;94704.22;4910954;29;20170;-75
2021/08/16 10:18:20;;;;;;;3.50;3.20;;;;;;;33.15;27.67;94700.75;4912928;29;20031;-75
2021/08/16 10:20:46;;;;;;;3.85;2.70;;;;;;;33.08;27.25;94694.25;4909544;29;20028;-75
2021/08/16 10:23:18;;;;;;;4.07;2.75;;;;;;;33.51;27.53;94699.56;4912104;29;20501;-75
2021/08/16 10:25:46;;;;;;;4.57;2.60;;;;;;;33.03;26.33;94699.78;4930428;28;20028;-74
2021/08/16 10:28:22;;;;;;;3.00;2.80;;;;;;;33.46;27.08;94699.75;4933827;28;20019;-74
2021/08/16 10:30:47;;;;;;;2.55;2.35;;;;;;;32.88;26.19;94653.53;4935074;28;20054;-76
2021/08/16 10:33:13;;;;;;;3.28;2.90;;;;;;;33.62;26.82;94688.16;4952966;28;20523;-74
2021/08/16 10:35:39;;;;;;;4.65;2.60;;;;;;;33.70;26.59;94683.88;4966697;28;20035;-73
2021/08/16 10:38:09;;;;;;;2.70;2.40;;;;;;;33.21;26.70;94675.28;4929996;28;20058;-75
2021/08/16 10:40:42;;;;;;;2.70;2.50;;;;;;;33.51;24.41;94681.53;4909018;28;20051;-74
2021/08/16 10:43:09;;;;;;;2.63;2.42;;;;;;;32.88;23.98;94677.69;4932445;29;20057;-75
2021/08/16 10:45:45;;;;;;;2.25;2.00;;;;;;;33.27;22.60;94678.59;4906324;29;20031;-75
2021/08/16 10:48:10;;;;;;;2.08;1.98;;;;;;;33.25;22.15;94668.19;4926776;29;20035;-75
2021/08/16 10:50:36;;;;;;;3.05;2.30;;;;;;;34.06;21.57;94676.09;4913777;29;20040;-76
2021/08/16 10:53:06;;;;;;;1.67;1.58;;;;;;;32.97;20.85;94675.00;4922183;29;20035;-74
2021/08/16 10:55:33;;;;;;;2.40;2.20;;;;;;;32.60;20.24;94665.72;4924978;29;20122;-77
2021/08/16 10:57:59;;;;;;;1.90;1.80;;;;;;;33.26;21.33;94674.34;4908262;29;20081;-75
2021/08/16 11:00:24;;;;;;;1.58;1.48;;;;;;;33.67;19.10;94666.50;4922433;29;20040;-74
2021/08/16 11:02:56;;;;;;;1.88;1.77;;;;;;;34.06;19.21;94651.09;4924847;29;20051;-74
2021/08/16 11:05:35;;;;;;;1.95;1.85;;;;;;;34.04;18.86;94648.72;4914842;29;20688;-79
2021/08/16 11:08:03;;;;;;;2.63;1.55;;;;;;;33.77;18.15;94647.31;4914480;29;20031;-76
2021/08/16 11:10:45;;;;;;;1.98;1.80;;;;;;;33.33;18.35;94645.06;4899530;29;20036;-76
2021/08/16 11:13:20;;;;;;;1.92;1.83;;;;;;;33.47;18.50;94640.28;4933039;29;20110;-76
2021/08/16 11:15:46;;;;;;;1.73;1.63;;;;;;;33.62;18.89;94641.69;4913797;29;20045;-73
2021/08/16 11:18:15;;;;;;;1.67;1.58;;;;;;;33.18;18.27;94641.03;4946628;29;20023;-75
2021/08/16 11:20:41;;;;;;;3.88;1.95;;;;;;;33.74;18.67;94639.91;4942982;29;20039;-78
2021/08/16 11:23:06;;;;;;;2.17;1.90;;;;;;;33.78;19.17;94626.56;4913638;28;20043;-75
2021/08/16 11:25:31;;;;;;;1.95;1.83;;;;;;;33.58;18.88;94629.97;4897920;29;20083;-75
2021/08/16 11:28:01;;;;;;;1.65;1.55;;;;;;;34.20;19.38;94632.84;4920764;29;20517;-73
2021/08/16 11:30:27;;;;;;;1.60;1.50;;;;;;;33.80;18.84;94627.84;4898202;29;20571;-75
2021/08/16 11:32:54;;;;;;;2.03;1.80;;;;;;;34.10;19.17;94617.06;4932415;29;20023;-74
2021/08/16 11:35:19;;;;;;;2.65;1.83;;;;;;;33.89;19.30;94609.75;4916371;29;20034;-75
2021/08/16 11:37:48;;;;;;;2.10;1.90;;;;;;;33.72;18.41;94609.06;4917949;29;20031;-75
2021/08/16 11:40:14;;;;;;;1.70;1.60;;;;;;;33.73;18.77;94614.13;4921715;29;20054;-74
2021/08/16 11:42:40;;;;;;;7.07;2.13;;;;;;;33.68;18.80;94613.53;4931283;29;20113;-74
2021/08/16 11:45:08;;;;;;;1.90;1.70;;;;;;;33.56;18.88;94606.09;4915643;29;20044;-75
2021/08/16 11:47:38;;;;;;;1.55;1.45;;;;;;;33.61;17.76;94605.97;4911918;29;20111;-74
2021/08/16 11:50:04;;;;;;;1.85;1.30;;;;;;;33.36;18.22;94598.78;4930159;29;20047;-75
2021/08/16 11:52:30;;;;;;;2.30;1.52;;;;;;;34.37;17.86;94597.72;4931983;29;20036;-75
2021/08/16 11:54:59;;;;;;;1.83;1.23;;;;;;;34.47;18.29;94597.34;4914029;29;20027;-74
2021/08/16 11:57:24;;;;;;;1.60;1.50;;;;;;;34.24;18.92;94590.72;4917870;29;20559;-74
2021/08/16 11:59:51;;;;;;;1.48;1.38;;;;;;;34.37;18.29;94595.03;4932168;29;20027;-73
2021/08/16 12:02:16;;;;;;;1.60;1.50;;;;;;;34.27;18.02;94581.97;4937621;28;20054;-75
2021/08/16 12:04:42;;;;;;;1.60;1.48;;;;;;;34.29;17.83;94585.16;4941996;28;20027;-74
2021/08/16 12:07:07;;;;;;;2.45;1.50;;;;;;;33.91;17.42;94580.63;4927593;28;20027;-74
2021/08/16 12:09:36;;;;;;;4.00;1.27;;;;;;;33.99;17.84;94576.31;4932223;28;20035;-75
2021/08/16 12:12:05;;;;;;;2.78;1.60;;;;;;;34.26;18.88;94570.44;4916841;29;20032;-75
2021/08/16 12:14:31;;;;;;;1.60;1.50;;;;;;;34.39;19.48;94576.66;4914568;29;20070;-75
2021/08/16 12:16:57;;;;;;;1.48;1.38;;;;;;;34.12;19.03;94575.31;4896641;29;20042;-74
2021/08/16 12:19:23;;;;;;;2.30;1.45;;;;;;;34.94;19.15;94571.72;4933170;29;20429;-73
2021/08/16 12:22:06;;;;;;;3.00;1.60;;;;;;;34.38;19.33;94569.72;4916037;29;20031;-74
2021/08/16 12:24:32;;;;;;;2.00;1.90;;;;;;;33.96;19.43;94568.13;4926824;29;20027;-75
2021/08/16 12:27:07;;;;;;;1.73;1.63;;;;;;;34.00;19.94;94564.44;4924502;29;20042;-74
2021/08/16 12:29:43;;;;;;;2.20;2.00;;;;;;;34.33;20.10;94554.53;4922670;29;20034;-73
2021/08/16 12:32:20;;;;;;;2.85;1.75;;;;;;;33.56;20.64;94556.94;4892927;29;20115;-74
2021/08/16 12:34:46;;;;;;;2.33;1.90;;;;;;;33.79;20.70;94558.25;4935164;29;20530;-74
2021/08/16 12:37:32;;;;;;;2.25;2.08;;;;;;;34.16;21.29;94545.84;4947799;28;20034;-74
2021/08/16 12:40:14;;;;;;;3.30;1.98;;;;;;;34.32;21.20;94541.44;4929685;29;20087;-74
2021/08/16 12:42:43;;;;;;;2.20;2.10;;;;;;;33.86;21.28;94545.88;4934611;29;20023;-73
2021/08/16 12:45:12;;;;;;;2.17;1.80;;;;;;;33.98;21.39;94541.66;4912314;28;20054;-73
2021/08/16 12:47:37;;;;;;;1.83;1.73;;;;;;;34.13;20.76;94538.44;4950403;28;20042;-76
2021/08/16 12:50:07;;;;;;;2.10;1.90;;;;;;;33.87;21.97;94536.72;4936109;28;20526;-72
2021/08/16 12:52:33;;;;;;;1.92;1.73;;;;;;;34.03;21.12;94538.81;4952162;28;20441;-73
2021/08/16 12:54:59;;;;;;;1.85;1.75;;;;;;;34.57;21.64;94532.34;4932935;28;20098;-74
2021/08/16 12:57:24;;;;;;;1.77;1.67;;;;;;;34.45;20.41;94529.59;4911607;28;20018;-73
2021/08/16 12:59:50;;;;;;;3.58;2.10;;;;;;;34.16;20.84;94521.63;4963051;28;20045;-74
2021/08/16 13:02:25;;;;;;;2.65;1.77;;;;;;;34.15;20.75;94520.84;4935820;28;20047;-74
2021/08/16 13:04:52;;;;;;;2.08;1.83;;;;;;;33.88;20.51;94532.88;4918885;28;20031;-73
2021/08/16 13:07:17;;;;;;;6.88;1.77;;;;;;;34.33;20.67;94530.34;4935369;28;20031;-73
2021/08/16 13:09:43;;;;;;;1.75;1.58;;;;;;;34.23;20.25;94529.97;4933404;28;20089;-73
2021/08/16 13:12:08;;;;;;;1.92;1.80;;;;;;;34.01;20.85;94525.66;4915889;29;20027;-74
2021/08/16 13:14:34;;;;;;;2.10;2.00;;;;;;;33.79;20.95;94518.72;4916523;29;20090;-73
2021/08/16 13:16:59;;;;;;;2.33;2.00;;;;;;;33.99;21.66;94522.53;4930472;29;20038;-73
2021/08/16 13:19:25;;;;;;;1.80;1.70;;;;;;;33.75;20.53;94517.78;4933004;29;20572;-73
2021/08/16 13:21:50;;;;;;;1.88;1.70;;;;;;;34.16;20.80;94513.56;4948047;29;20035;-74
2021/08/16 13:24:16;;;;;;;2.60;2.10;;;;;;;33.86;20.52;94518.19;4932023;29;20071;-74
2021/08/16 13:26:41;;;;;;;1.80;1.70;;;;;;;34.20;20.26;94517.94;4948083;29;20504;-75
2021/08/16 13:29:07;;;;;;;2.45;1.58;;;;;;;34.35;19.73;94511.19;4932105;29;20127;-73
2021/08/16 13:31:34;;;;;;;1.70;1.60;;;;;;;34.23;19.90;94516.53;4942257;29;20038;-73
2021/08/16 13:34:00;;;;;;;2.15;1.80;;;;;;;33.72;20.07;94502.31;4946828;29;20058;-74
2021/08/16 13:36:26;;;;;;;2.03;1.92;;;;;;;33.83;20.15;94498.13;4947713;29;20035;-73
2021/08/16 13:38:51;;;;;;;1.88;1.77;;;;;;;34.01;19.76;94492.59;4930589;29;20077;-74
2021/08/16 13:41:17;;;;;;;2.05;1.55;;;;;;;34.09;19.60;94507.91;4948487;29;20035;-74
2021/08/16 13:43:43;;;;;;;4.05;1.90;;;;;;;33.89;19.85;94504.88;4946704;29;20047;-74
2021/08/16 13:46:08;;;;;;;2.67;1.25;;;;;;;34.37;19.80;94496.28;4947486;29;20453;-74
2021/08/16 13:48:34;;;;;;;1.50;1.40;;;;;;;34.29;19.71;94496.38;4947812;29;20437;-74
2021/08/16 13:50:59;;;;;;;1.58;1.48;;;;;;;34.58;20.13;94490.81;4947243;29;20043;-74
2021/08/16 13:53:25;;;;;;;1.80;1.70;;;;;;;34.31;19.50;94497.59;4942451;29;20062;-74
2021/08/16 13:55:50;;;;;;;4.32;1.58;;;;;;;34.05;19.26;94490.84;4929751;29;20090;-74
2021/08/16 13:58:18;;;;;;;1.67;1.58;;;;;;;33.67;19.95;94494.47;4900439;29;20038;-75
2021/08/16 14:00:43;;;;;;;2.75;1.70;;;;;;;33.97;19.86;94486.34;4899000;29;20051;-73
2021/08/16 14:03:10;;;;;;;1.92;1.70;;;;;;;34.58;19.66;94493.50;4916012;29;20114;-77
2021/08/16 14:05:35;;;;;;;1.40;1.20;;;;;;;33.74;20.22;94483.97;4930930;29;20024;-74
2021/08/16 14:08:01;;;;;;;2.35;2.03;;;;;;;33.79;19.37;94475.69;4919726;29;20477;-74
2021/08/16 14:10:26;;;;;;;2.72;1.58;;;;;;;33.77;19.58;94475.25;4904565;29;20027;-74
2021/08/16 14:12:52;;;;;;;1.52;1.42;;;;;;;34.12;19.14;94475.00;4934355;29;20515;-74
2021/08/16 14:15:17;;;;;;;2.50;1.55;;;;;;;33.42;19.45;94476.59;4934992;29;20390;-76
2021/08/16 14:17:43;;;;;;;2.28;1.52;;;;;;;33.54;19.51;94468.59;4933002;29;20039;-74
2021/08/16 14:20:10;;;;;;;1.60;1.50;;;;;;;34.05;19.10;94462.03;4936043;29;20027;-76
2021/08/16 14:22:35;;;;;;;1.58;1.48;;;;;;;34.09;19.17;94446.81;4928433;29;20067;-78
2021/08/16 14:25:02;;;;;;;1.70;1.60;;;;;;;33.82;18.98;94458.91;4925333;29;20028;-74
2021/08/16 14:27:28;;;;;;;1.52;1.40;;;;;;;33.52;19.42;94465.44;4909679;29;20019;-74
2021/08/16 14:29:53;;;;;;;1.77;1.65;;;;;;;33.67;19.96;94464.09;4951236;28;20034;-74
2021/08/16 14:32:19;;;;;;;1.63;1.52;;;;;;;33.75;18.94;94453.28;4952773;29;20099;-74
2021/08/16 14:34:44;;;;;;;1.60;1.50;;;;;;;33.81;18.79;94461.94;4933203;29;20031;-74
2021/08/16 14:37:10;;;;;;;1.80;1.38;;;;;;;33.44;19.50;94455.53;4935686;29;20090;-74
2021/08/16 14:39:35;;;;;;;1.70;1.60;;;;;;;33.40;18.97;94444.66;4931424;28;20425;-75
2021/08/16 14:42:01;;;;;;;1.48;1.38;;;;;;;33.28;19.54;94458.00;4940477;28;20588;-75
2021/08/16 14:44:27;;;;;;;2.03;1.60;;;;;;;33.17;18.93;94456.78;4937598;28;20035;-77
2021/08/16 14:46:52;;;;;;;2.47;1.42;;;;;;;33.15;19.38;94455.56;4923573;28;20047;-78
2021/08/16 14:49:18;;;;;;;3.83;1.50;;;;;;;33.32;19.56;94460.84;4927742;28;20030;-75
2021/08/16 14:51:43;;;;;;;2.10;1.60;;;;;;;33.15;19.31;94450.97;4934648;28;20069;-74
2021/08/16 14:54:09;;;;;;;2.65;1.50;;;;;;;33.33;19.62;94451.66;4917654;28;20043;-75
2021/08/16 14:56:34;;;;;;;1.60;1.50;;;;;;;33.16;19.01;94457.13;4938332;28;20416;-77
2021/08/16 14:59:00;;;;;;;3.78;1.50;;;;;;;33.23;19.35;94452.06;4908418;28;20037;-76
2021/08/16 15:01:25;;;;;;;1.50;1.40;;;;;;;32.84;19.63;94456.63;4945566;28;20134;-76
2021/08/16 15:03:51;;;;;;;7.45;1.70;;;;;;;33.17;19.26;94445.28;4918577;28;20176;-78
2021/08/16 15:06:16;;;;;;;1.75;1.50;;;;;;;33.01;20.03;94450.38;4948492;28;20031;-76
2021/08/16 15:08:42;;;;;;;1.17;1.00;;;;;;;33.39;20.31;94443.06;4931565;28;20074;-74
2021/08/16 15:11:08;;;;;;;3.30;1.65;;;;;;;33.07;19.58;94441.06;4934602;28;20089;-76
2021/08/16 15:13:35;;;;;;;1.77;1.30;;;;;;;32.86;20.26;94443.66;4949380;28;20022;-74
2021/08/16 15:16:02;;;;;;;1.60;1.50;;;;;;;33.15;20.47;94444.81;4948216;28;20038;-76
2021/08/16 15:18:28;;;;;;;5.90;1.52;;;;;;;32.81;20.25;94441.19;4932603;28;20031;-74
2021/08/16 15:20:54;;;;;;;1.75;1.65;;;;;;;33.01;20.06;94436.19;4952241;28;20034;-76
2021/08/16 15:23:19;;;;;;;2.20;1.70;;;;;;;32.78;19.91;94439.13;4938003;28;20023;-76
2021/08/16 15:25:45;;;;;;;1.60;1.30;;;;;;;32.79;20.82;94427.28;4914542;29;20082;-75
2021/08/16 15:28:10;;;;;;;13.65;2.63;;;;;;;32.96;21.45;94439.03;4934659;29;20035;-75
2021/08/16 15:30:36;;;;;;;1.73;1.63;;;;;;;32.67;20.42;94434.44;4926543;28;20022;-80
2021/08/16 15:33:02;;;;;;;2.22;1.40;;;;;;;32.71;20.23;94433.47;4942503;28;20074;-76
2021/08/16 15:35:29;;;;;;;1.15;1.10;;;;;;;32.74;20.80;94432.03;4952756;28;20078;-74
2021/08/16 15:37:54;;;;;;;3.30;1.40;;;;;;;32.66;20.61;94427.50;4928323;28;20028;-75
2021/08/16 15:40:19;;;;;;;2.80;1.58;;;;;;;32.51;20.78;94423.41;4918198;29;20038;-76
2021/08/16 15:42:48;;;;;;;2.38;1.60;;;;;;;32.49;21.17;94425.66;4923481;29;20070;-77
2021/08/16 15:45:13;;;;;;;3.40;1.50;;;;;;;32.32;21.36;94425.69;4918033;29;20031;-75
2021/08/16 15:47:39;;;;;;;5.30;1.42;;;;;;;32.32;21.75;94423.81;4951340;29;20028;-75
2021/08/16 15:50:04;;;;;;;1.52;1.42;;;;;;;32.29;21.64;94418.28;4918015;29;20038;-75
2021/08/16 15:52:31;;;;;;;3.10;1.45;;;;;;;32.13;21.96;94420.69;4928573;29;20043;-75
2021/08/16 15:54:57;;;;;;;3.45;1.83;;;;;;;32.01;21.71;94427.78;4933383;29;20035;-79
2021/08/16 15:57:23;;;;;;;1.60;1.50;;;;;;;32.06;22.36;94423.06;4948715;28;20035;-74
2021/08/16 15:59:48;;;;;;;1.50;1.40;;;;;;;32.07;22.67;94429.22;4934903;29;20122;-75
2021/08/16 16:02:15;;;;;;;2.92;1.35;;;;;;;32.02;22.37;94423.97;4950505;29;20046;-75
2021/08/16 16:04:41;;;;;;;1.77;1.67;;;;;;;31.97;22.51;94421.47;4934132;29;20031;-76
2021/08/16 16:07:06;;;;;;;1.52;1.42;;;;;;;31.79;22.79;94426.06;4933155;29;20027;-75
2021/08/16 16:09:32;;;;;;;4.38;2.17;;;;;;;31.66;22.80;94421.69;4928022;29;20073;-75
2021/08/16 16:11:58;;;;;;;1.92;1.60;;;;;;;31.51;22.77;94414.88;4949689;29;20023;-75
2021/08/16 16:14:24;;;;;;;3.67;2.10;;;;;;;31.51;22.50;94420.25;4948638;29;20035;-76
2021/08/16 16:16:49;;;;;;;1.40;1.30;;;;;;;31.44;23.08;94419.88;4939829;29;20046;-74
2021/08/16 16:19:15;;;;;;;4.55;1.98;;;;;;;31.25;23.40;94424.75;4935169;29;20027;-77
2021/08/16 16:21:41;;;;;;;2.65;1.90;;;;;;;31.24;23.16;94425.88;4894131;29;20406;-78
2021/08/16 16:24:06;;;;;;;1.77;1.67;;;;;;;31.08;23.51;94416.72;4925191;29;20035;-76
2021/08/16 16:26:32;;;;;;;1.77;1.60;;;;;;;30.95;23.77;94414.91;4912157;29;20456;-74
2021/08/16 16:28:57;;;;;;;3.88;1.98;;;;;;;30.88;23.79;94427.97;4919568;29;20054;-77
2021/08/16 16:31:23;;;;;;;2.55;2.28;;;;;;;30.88;24.33;94427.97;4920350;29;20083;-77